createdAt,value
2019-04-14T00:00:01.902Z,17.70
2019-04-14T00:05:10.379Z,16.00
2019-04-14T00:10:18.668Z,16.40
2019-04-14T00:15:31.289Z,14.75
2019-04-14T00:20:31.440Z,16.12
2019-04-14T00:25:37.026Z,17.05
2019-04-14T00:30:42.603Z,16.97
2019-04-14T00:35:58.562Z,15.28
2019-04-14T00:41:11.582Z,16.97
2019-04-14T00:46:21.165Z,16.73
2019-04-14T00:51:26.579Z,16.95
2019-04-14T00:56:32.283Z,16.37
2019-04-14T01:01:37.324Z,17.23
2019-04-14T01:06:42.579Z,15.78
2019-04-14T01:11:48.752Z,16.05
2019-04-14T01:16:53.855Z,17.10
2019-04-14T01:21:58.908Z,15.93
2019-04-14T01:27:03.998Z,17.57
2019-04-14T01:32:09.157Z,15.08
2019-04-14T01:37:15.900Z,15.13
2019-04-14T01:42:20.791Z,10.57
2019-04-14T01:47:26.941Z,12.50
2019-04-14T01:52:50.172Z,12.60
2019-04-14T01:58:06.053Z,11.90
2019-04-14T02:03:10.866Z,11.30
2019-04-14T02:08:16.144Z,10.08
2019-04-14T02:13:22.427Z,10.05
2019-04-14T02:18:27.484Z,9.05
2019-04-14T02:23:32.498Z,8.95
2019-04-14T02:28:37.639Z,8.98
2019-04-14T02:34:07.375Z,9.05
2019-04-14T02:44:22.990Z,7.03
2019-04-14T02:49:38.996Z,9.10
2019-04-14T02:54:45.004Z,9.38
2019-04-14T02:59:45.176Z,9.35
2019-04-14T03:04:54.897Z,8.30
2019-04-14T03:09:52.464Z,7.47
2019-04-14T03:15:01.486Z,7.70
2019-04-14T03:20:25.922Z,7.55
2019-04-14T03:25:29.727Z,7.60
2019-04-14T03:36:30.450Z,7.37
2019-04-14T03:41:00.091Z,7.95
2019-04-14T03:46:14.841Z,7.70
2019-04-14T03:55:59.898Z,7.42
2019-04-14T04:01:01.797Z,7.45
2019-04-14T04:06:07.553Z,7.72
2019-04-14T04:11:13.549Z,5.93
2019-04-14T04:16:20.214Z,7.58
2019-04-14T04:21:31.214Z,8.30
2019-04-14T04:26:38.622Z,7.08
2019-04-14T04:31:54.745Z,7.70
2019-04-14T04:37:01.828Z,6.58
2019-04-14T04:42:09.007Z,6.65
2019-04-14T04:47:14.404Z,5.03
2019-04-14T04:52:19.451Z,6.47
2019-04-14T04:57:24.462Z,5.75
2019-04-14T05:02:29.231Z,5.72
2019-04-14T05:07:34.050Z,5.80
2019-04-14T05:12:43.603Z,5.87
2019-04-14T05:17:49.621Z,7.15
2019-04-14T05:22:55.017Z,6.20
2019-04-14T05:28:00.908Z,6.30
2019-04-14T05:33:05.961Z,5.97
2019-04-14T05:38:11.027Z,6.17
2019-04-14T05:43:28.251Z,5.95
2019-04-14T05:48:22.882Z,5.92
2019-04-14T05:53:28.350Z,6.12
2019-04-14T05:58:33.972Z,6.08
2019-04-14T06:03:39.039Z,6.65
2019-04-14T06:08:44.088Z,6.25
2019-04-14T06:13:48.835Z,5.60
2019-04-14T06:18:53.573Z,5.37
2019-04-14T06:23:58.316Z,6.10
2019-04-14T06:29:03.058Z,5.20
2019-04-14T06:34:21.091Z,5.65
2019-04-14T06:39:28.516Z,6.05
2019-04-14T06:44:33.880Z,5.83
2019-04-14T06:49:48.441Z,5.05
2019-04-14T06:54:45.201Z,5.37
2019-04-14T06:59:50.255Z,5.45
2019-04-14T07:04:54.968Z,5.78
2019-04-14T07:09:59.735Z,5.55
2019-04-14T07:15:06.427Z,6.25
2019-04-14T07:20:11.676Z,5.45
2019-04-14T07:25:16.427Z,5.97
2019-04-14T07:30:22.976Z,5.85
2019-04-14T07:35:34.860Z,5.83
2019-04-14T07:40:41.210Z,5.60
2019-04-14T07:45:57.274Z,5.70
2019-04-14T07:51:03.759Z,5.75
2019-04-14T07:56:13.159Z,5.05
2019-04-14T08:01:19.578Z,7.20
2019-04-14T08:06:24.435Z,5.25
2019-04-14T08:11:29.206Z,4.90
2019-04-14T08:16:34.254Z,5.22
2019-04-14T08:21:39.302Z,5.08
2019-04-14T08:26:44.042Z,5.17
2019-04-14T08:31:49.097Z,5.67
2019-04-14T08:36:53.917Z,4.47
2019-04-14T08:42:06.568Z,5.12
2019-04-14T08:47:22.545Z,4.80
2019-04-14T08:52:45.546Z,4.78
2019-04-14T08:57:52.745Z,4.92
2019-04-14T09:03:15.304Z,4.35
2019-04-14T09:08:27.600Z,5.12
2019-04-14T09:13:32.447Z,5.15
2019-04-14T09:18:37.511Z,5.17
2019-04-14T09:23:42.561Z,4.40
2019-04-14T09:28:47.305Z,4.70
2019-04-14T09:33:52.354Z,4.25
2019-04-14T09:38:57.123Z,4.37
2019-04-14T09:44:01.844Z,4.35
2019-04-14T09:49:06.658Z,6.12
2019-04-14T09:54:12.631Z,4.30
2019-04-14T09:59:17.376Z,4.00
2019-04-14T10:04:22.346Z,3.90
2019-04-14T10:09:27.392Z,3.72
2019-04-14T10:14:32.133Z,5.30
2019-04-14T10:19:36.875Z,5.87
2019-04-14T10:24:41.619Z,5.50
2019-04-14T10:29:46.666Z,16.80
2019-04-14T10:34:51.722Z,15.55
2019-04-14T10:39:56.768Z,3.30
2019-04-14T10:45:01.804Z,3.15
2019-04-14T10:50:07.789Z,2.75
2019-04-14T10:55:12.706Z,2.80
2019-04-14T11:00:18.404Z,3.25
2019-04-14T11:05:24.468Z,37.42
2019-04-14T11:10:29.521Z,2.42
2019-04-14T11:15:34.344Z,3.27
2019-04-14T11:20:39.311Z,2.87
2019-04-14T11:25:44.360Z,2.20
2019-04-14T11:30:49.514Z,3.00
2019-04-14T11:35:55.995Z,3.08
2019-04-14T11:41:02.411Z,29.00
2019-04-14T11:46:07.345Z,50.88
2019-04-14T11:51:12.376Z,2.80
2019-04-14T11:56:17.429Z,2.98
2019-04-14T12:01:26.771Z,3.72
2019-04-14T12:06:49.635Z,23.10
2019-04-14T12:11:54.482Z,2.47
2019-04-14T12:16:59.226Z,2.60
2019-04-14T12:22:08.363Z,3.25
2019-04-14T12:27:10.448Z,6.58
2019-04-14T12:32:15.268Z,2.83
2019-04-14T12:37:20.248Z,2.83
2019-04-14T12:42:46.485Z,4.72
2019-04-14T12:47:55.527Z,5.20
2019-04-14T12:53:00.577Z,3.20
2019-04-14T12:58:11.222Z,8.33
2019-04-14T13:03:16.205Z,3.62
2019-04-14T13:08:21.254Z,3.60
2019-04-14T13:13:26.304Z,3.20
2019-04-14T13:18:31.353Z,4.12
2019-04-14T13:23:36.075Z,11.88
2019-04-14T13:28:40.837Z,10.40
2019-04-14T13:33:45.886Z,4.47
2019-04-14T13:38:50.708Z,3.77
2019-04-14T13:43:55.987Z,4.60
2019-04-14T13:49:01.034Z,3.52
2019-04-14T13:54:06.676Z,8.08
2019-04-14T13:59:11.757Z,3.45
2019-04-14T14:04:16.577Z,3.25
2019-04-14T14:09:21.538Z,3.52
2019-04-14T14:14:27.898Z,3.70
2019-04-14T14:19:34.279Z,3.45
2019-04-14T14:24:43.832Z,3.35
2019-04-14T14:29:48.815Z,3.75
2019-04-14T14:34:53.622Z,4.28
2019-04-14T14:39:58.368Z,3.65
2019-04-14T14:45:05.870Z,4.17
2019-04-14T14:50:21.671Z,4.17
2019-04-14T14:55:26.642Z,4.05
2019-04-14T15:00:35.046Z,3.77
2019-04-14T15:05:41.054Z,4.67
2019-04-14T15:10:45.871Z,4.58
2019-04-14T15:15:52.063Z,13.70
2019-04-14T15:20:57.168Z,4.58
2019-04-14T15:26:03.091Z,9.60
2019-04-14T15:31:07.907Z,5.40
2019-04-14T15:36:13.872Z,3.98
2019-04-14T15:41:18.718Z,7.55
2019-04-14T15:46:25.136Z,4.55
2019-04-14T15:51:29.865Z,7.53
2019-04-14T15:56:48.203Z,7.42
2019-04-14T16:07:02.829Z,5.50
2019-04-14T16:12:09.728Z,5.10
2019-04-14T16:17:22.180Z,6.92
2019-04-14T16:22:27.501Z,5.15
2019-04-14T16:27:40.229Z,8.30
2019-04-14T16:32:52.966Z,6.55
2019-04-14T16:37:57.883Z,6.78
2019-04-14T16:43:02.752Z,5.75
2019-04-14T16:48:07.804Z,7.45
2019-04-14T16:53:29.442Z,7.20
2019-04-14T16:58:42.148Z,6.80
2019-04-14T17:03:47.216Z,6.97
2019-04-14T17:25:25.971Z,6.28
2019-04-14T17:30:33.667Z,6.85
2019-04-14T17:35:42.610Z,6.30
2019-04-14T17:40:52.884Z,6.05
2019-04-14T17:46:00.419Z,6.33
2019-04-14T17:51:12.622Z,6.50
2019-04-14T17:56:25.879Z,6.55
2019-04-14T18:01:39.203Z,6.20
2019-04-14T18:06:57.242Z,5.83
2019-04-14T18:12:20.924Z,5.17
2019-04-14T18:17:44.722Z,6.58
2019-04-14T18:22:50.732Z,6.28
2019-04-14T18:28:11.601Z,5.78
2019-04-14T18:33:19.216Z,7.05
2019-04-14T18:38:38.806Z,6.60
2019-04-14T18:43:46.420Z,7.95
2019-04-14T18:48:54.033Z,8.15
2019-04-14T18:54:07.777Z,8.05
2019-04-14T18:59:24.295Z,11.30
2019-04-14T19:04:30.365Z,8.75
2019-04-14T19:09:36.239Z,9.58
2019-04-14T19:14:42.821Z,11.63
2019-04-14T19:20:01.212Z,7.78
2019-04-14T19:25:07.843Z,7.45
2019-04-14T19:30:09.334Z,7.70
2019-04-14T19:35:15.614Z,7.90
2019-04-14T19:40:21.792Z,11.57
2019-04-14T19:45:27.860Z,10.58
2019-04-14T19:50:33.832Z,9.80
2019-04-14T19:55:39.905Z,10.48
2019-04-14T20:00:45.982Z,13.88
2019-04-14T20:05:52.054Z,41.88
2019-04-14T20:10:58.640Z,47.75
2019-04-14T20:16:22.531Z,33.73
2019-04-14T20:21:31.574Z,40.08
2019-04-14T20:26:39.699Z,43.60
2019-04-14T20:31:53.343Z,11.00
2019-04-14T20:36:59.329Z,12.58
2019-04-14T20:42:07.332Z,12.25
2019-04-14T20:47:13.508Z,11.12
2019-04-14T20:52:19.482Z,13.05
2019-04-14T20:57:27.093Z,14.45
2019-04-14T21:02:32.858Z,12.85
2019-04-14T21:07:38.827Z,12.90
2019-04-14T21:12:46.335Z,13.07
2019-04-14T21:18:09.921Z,13.60
2019-04-14T21:23:17.526Z,14.10
2019-04-14T21:33:46.611Z,13.80
2019-04-14T21:38:53.404Z,14.00
2019-04-14T21:43:59.329Z,15.13
2019-04-14T21:49:05.509Z,15.93
2019-04-14T21:54:11.480Z,16.10
2019-04-14T21:59:19.294Z,14.57
2019-04-14T22:04:34.379Z,13.27
2019-04-14T22:09:41.549Z,13.17
2019-04-14T22:14:47.443Z,14.65
2019-04-14T22:19:54.437Z,11.35
2019-04-14T22:25:00.311Z,13.57
2019-04-14T22:30:10.294Z,13.37
2019-04-14T22:35:17.271Z,13.83
2019-04-14T22:40:23.141Z,13.60
2019-04-14T22:45:29.112Z,13.23
2019-04-14T22:50:35.188Z,16.43
2019-04-14T22:55:41.256Z,15.37
2019-04-14T23:00:55.735Z,15.73
2019-04-14T23:06:07.837Z,14.40
2019-04-14T23:11:22.485Z,13.90
2019-04-14T23:16:28.210Z,16.93
2019-04-14T23:21:41.428Z,16.67
2019-04-14T23:26:52.894Z,13.80
2019-04-14T23:37:00.051Z,14.53
2019-04-14T23:42:06.228Z,15.70
2019-04-14T23:47:12.201Z,13.37
2019-04-14T23:52:18.172Z,12.33
2019-04-14T23:57:24.142Z,13.07
